Terminal Aerodrome Forecast
Issued by NWS Houston/Galveston, TX

Home | Current Version | Previous Version | Text Only | Print | Product List | Glossary On
Versions: 1 2 3 4 5 6 7 8 9 10 11 12 13 14 15 16 17 18 19 20 21 22 23 24 25 26
000
FTUS44 KHGX 291408 AAA
TAFGLS
TAF AMD
KGLS 291408Z 2914/3012 14021KT 3SM HZ OVC016 WS020/17045KT
     FM291800 15020G30KT 6SM BR BKN015
     FM300600 16026G32KT 6SM BR VCSH BKN015
      TEMPO 3008/3011 34025KT TSRA BKN015CB
     FM301100 36025G33KT P6SM -RA SCT025 BKN050=

USA.gov is the U.S. government's official web portal to all federal, state and local government web resources and services.